Time;durP1;ratioP1;P1;durP2;ratioP2;P2;SDS_P1;SDS_P2;PMS_P1;PMS_P2;Temp;Humidity;BMP_temperature;BMP_pressure;BME280_temperature;BME280_humidity;BME280_pressure;Samples;Min_cycle;Max_cycle;Signal;HPM_P1;HPM_P2
2024/02/27 00:01:47;;;;;;;17.00;11.13;;;;;;;;;;4988512;28;25129;-68
2024/02/27 00:04:14;;;;;;;16.55;10.65;;;;;;;;;;5002071;28;25140;-66
2024/02/27 00:06:40;;;;;;;15.00;10.75;;;;;;;;;;4988265;28;25089;-68
2024/02/27 00:09:14;;;;;;;18.17;11.20;;;;;;;;;;5005496;28;25058;-68
2024/02/27 00:11:40;;;;;;;16.30;11.05;;;;;;;;;;5006387;28;25067;-68
2024/02/27 00:14:06;;;;;;;17.92;11.45;;;;;;;;;;4997334;28;25079;-69
2024/02/27 00:16:33;;;;;;;14.15;10.32;;;;;;;;;;4988241;28;25062;-68
2024/02/27 00:18:59;;;;;;;16.30;10.68;;;;;;;;;;5006938;28;25058;-67
2024/02/27 00:21:25;;;;;;;15.20;10.10;;;;;;;;;;5004548;28;25091;-67
2024/02/27 00:23:51;;;;;;;13.27;10.35;;;;;;;;;;4991398;28;25069;-68
2024/02/27 00:26:17;;;;;;;13.75;10.30;;;;;;;;;;5006138;28;25064;-67
2024/02/27 00:28:43;;;;;;;15.02;9.40;;;;;;;;;;4989652;28;25134;-67
2024/02/27 00:31:09;;;;;;;12.52;9.48;;;;;;;;;;5009472;28;25082;-68
2024/02/27 00:33:35;;;;;;;15.40;10.40;;;;;;;;;;5008965;28;25063;-66
2024/02/27 00:36:02;;;;;;;13.30;9.07;;;;;;;;;;5003786;28;25061;-68
2024/02/27 00:38:28;;;;;;;13.32;9.52;;;;;;;;;;5002819;28;25117;-68
2024/02/27 00:40:54;;;;;;;17.40;9.88;;;;;;;;;;5007369;28;25053;-69
2024/02/27 00:43:20;;;;;;;13.43;9.75;;;;;;;;;;5004352;28;25072;-68
2024/02/27 00:45:46;;;;;;;12.75;9.65;;;;;;;;;;4989150;28;25113;-70
2024/02/27 00:48:12;;;;;;;13.65;9.07;;;;;;;;;;4985884;28;25107;-67
2024/02/27 00:50:39;;;;;;;13.07;9.68;;;;;;;;;;5008491;28;25115;-67
2024/02/27 00:53:07;;;;;;;17.77;10.52;;;;;;;;;;4992509;28;25122;-65
2024/02/27 00:55:33;;;;;;;13.40;10.20;;;;;;;;;;4990874;28;25060;-69
2024/02/27 00:57:59;;;;;;;13.50;9.98;;;;;;;;;;4991572;28;25055;-69
2024/02/27 01:00:25;;;;;;;13.40;10.18;;;;;;;;;;5005487;28;25088;-66
2024/02/27 01:02:51;;;;;;;13.57;9.60;;;;;;;;;;5003606;28;25070;-69
2024/02/27 01:05:18;;;;;;;13.70;9.05;;;;;;;;;;5000701;28;25053;-69
2024/02/27 01:07:44;;;;;;;13.23;9.90;;;;;;;;;;5002585;28;25086;-66
2024/02/27 01:10:10;;;;;;;13.48;9.30;;;;;;;;;;5004057;28;25062;-68
2024/02/27 01:12:38;;;;;;;17.45;9.15;;;;;;;;;;4994599;28;25081;-67
2024/02/27 01:15:04;;;;;;;14.65;8.48;;;;;;;;;;5020352;28;25066;-67
2024/02/27 01:17:30;;;;;;;13.52;9.25;;;;;;;;;;5013804;28;25084;-67
2024/02/27 01:19:56;;;;;;;11.75;9.23;;;;;;;;;;4989013;28;25052;-68
2024/02/27 01:22:27;;;;;;;14.07;8.85;;;;;;;;;;5001698;28;25053;-67
2024/02/27 01:24:53;;;;;;;15.52;9.65;;;;;;;;;;5002812;28;25046;-69
2024/02/27 01:27:19;;;;;;;15.90;8.90;;;;;;;;;;4998087;28;25057;-67
2024/02/27 01:29:45;;;;;;;12.55;8.50;;;;;;;;;;5003585;28;25052;-68
2024/02/27 01:32:11;;;;;;;11.80;8.73;;;;;;;;;;4995610;28;25091;-69
2024/02/27 01:34:37;;;;;;;14.70;8.77;;;;;;;;;;5000429;28;25065;-67
2024/02/27 01:37:03;;;;;;;12.00;8.93;;;;;;;;;;5004741;28;25070;-69
2024/02/27 01:39:30;;;;;;;16.90;9.50;;;;;;;;;;4997844;28;25066;-69
2024/02/27 01:41:56;;;;;;;13.65;8.57;;;;;;;;;;4994451;28;25075;-70
2024/02/27 01:44:22;;;;;;;14.95;8.90;;;;;;;;;;5000880;28;25065;-69
2024/02/27 01:46:48;;;;;;;13.07;8.05;;;;;;;;;;4985179;28;25132;-69
2024/02/27 01:49:14;;;;;;;12.52;8.85;;;;;;;;;;4977483;28;25103;-68
2024/02/27 01:51:45;;;;;;;12.75;8.60;;;;;;;;;;4990726;28;25162;-69
2024/02/27 01:54:12;;;;;;;12.02;9.00;;;;;;;;;;4985343;28;25059;-69
2024/02/27 01:56:38;;;;;;;13.23;8.13;;;;;;;;;;4994244;28;25067;-67
2024/02/27 01:59:04;;;;;;;13.50;8.45;;;;;;;;;;4984737;28;25099;-68
2024/02/27 02:01:30;;;;;;;13.85;9.20;;;;;;;;;;4994212;28;25054;-66
2024/02/27 02:03:57;;;;;;;11.05;8.20;;;;;;;;;;5006767;28;25051;-66
2024/02/27 02:06:23;;;;;;;11.93;8.40;;;;;;;;;;5001858;28;25052;-67
2024/02/27 02:08:49;;;;;;;11.30;8.60;;;;;;;;;;5003484;28;25080;-68
2024/02/27 02:11:15;;;;;;;12.85;9.13;;;;;;;;;;5005477;28;25075;-69
2024/02/27 02:13:41;;;;;;;19.05;8.68;;;;;;;;;;5008896;28;25077;-68
2024/02/27 02:16:07;;;;;;;14.60;9.80;;;;;;;;;;5004684;28;25079;-68
2024/02/27 02:18:33;;;;;;;14.00;9.07;;;;;;;;;;5009678;28;25092;-68
2024/02/27 02:21:00;;;;;;;11.98;8.85;;;;;;;;;;4982921;28;25161;-67
2024/02/27 02:23:26;;;;;;;12.38;9.13;;;;;;;;;;5003009;28;25075;-68
2024/02/27 02:25:52;;;;;;;13.68;8.88;;;;;;;;;;4989450;28;25066;-68
2024/02/27 02:28:18;;;;;;;15.13;9.13;;;;;;;;;;4979720;28;25077;-70
2024/02/27 02:30:44;;;;;;;11.00;9.07;;;;;;;;;;4996955;28;25085;-68
2024/02/27 02:33:11;;;;;;;13.98;9.57;;;;;;;;;;5007086;28;25068;-68
2024/02/27 02:35:38;;;;;;;13.63;9.82;;;;;;;;;;4999658;28;25058;-69
2024/02/27 02:38:04;;;;;;;12.50;8.73;;;;;;;;;;4993299;28;25100;-69
2024/02/27 02:40:31;;;;;;;17.00;9.23;;;;;;;;;;5004356;28;25074;-69
2024/02/27 02:42:57;;;;;;;16.20;10.48;;;;;;;;;;4998680;28;25064;-69
2024/02/27 02:45:23;;;;;;;15.02;9.82;;;;;;;;;;4982833;28;25058;-69
2024/02/27 02:47:49;;;;;;;12.60;9.35;;;;;;;;;;5007715;28;25147;-67
2024/02/27 02:50:15;;;;;;;17.85;9.75;;;;;;;;;;4995016;28;25067;-68
2024/02/27 02:52:43;;;;;;;17.67;9.30;;;;;;;;;;4985485;28;25155;-68
2024/02/27 02:55:09;;;;;;;13.63;8.52;;;;;;;;;;5002884;28;25052;-68
2024/02/27 02:57:36;;;;;;;14.95;9.02;;;;;;;;;;4994409;28;25069;-70
2024/02/27 03:00:04;;;;;;;14.07;9.43;;;;;;;;;;5014489;28;25068;-67
2024/02/27 03:02:32;;;;;;;13.77;9.73;;;;;;;;;;4994616;28;25063;-68
2024/02/27 03:04:58;;;;;;;14.52;9.02;;;;;;;;;;4996563;28;25061;-66
2024/02/27 03:07:25;;;;;;;16.60;8.75;;;;;;;;;;5012581;28;25105;-68
2024/02/27 03:09:51;;;;;;;14.13;8.93;;;;;;;;;;5017085;28;25063;-69
2024/02/27 03:12:18;;;;;;;14.35;9.20;;;;;;;;;;5003208;28;25048;-69
2024/02/27 03:14:45;;;;;;;12.48;8.07;;;;;;;;;;4997639;28;25067;-66
2024/02/27 03:17:15;;;;;;;13.82;8.70;;;;;;;;;;5000458;28;25055;-72
2024/02/27 03:19:42;;;;;;;13.00;8.00;;;;;;;;;;5014966;28;25070;-67
2024/02/27 03:22:09;;;;;;;15.35;8.60;;;;;;;;;;5019898;28;25079;-70
2024/02/27 03:24:35;;;;;;;17.92;8.88;;;;;;;;;;5005963;28;25170;-69
2024/02/27 03:27:01;;;;;;;11.93;8.38;;;;;;;;;;5004186;28;25123;-68
2024/02/27 03:29:27;;;;;;;13.23;8.07;;;;;;;;;;4984106;28;25064;-69
2024/02/27 03:31:53;;;;;;;17.25;9.27;;;;;;;;;;4990354;28;25125;-68
2024/02/27 03:34:19;;;;;;;14.00;8.80;;;;;;;;;;5012542;28;25087;-68
2024/02/27 03:36:46;;;;;;;18.08;9.55;;;;;;;;;;5014877;28;25052;-67
2024/02/27 03:39:13;;;;;;;17.17;8.73;;;;;;;;;;4990931;28;25137;-68
2024/02/27 03:41:39;;;;;;;10.70;8.25;;;;;;;;;;5007874;28;25135;-68
2024/02/27 03:44:06;;;;;;;15.00;9.30;;;;;;;;;;4985585;28;25059;-68
2024/02/27 03:46:32;;;;;;;16.27;8.20;;;;;;;;;;4987919;28;25084;-67
2024/02/27 03:48:58;;;;;;;12.98;9.48;;;;;;;;;;5000664;28;25090;-68
2024/02/27 03:51:24;;;;;;;13.23;9.02;;;;;;;;;;5008978;28;25125;-68
2024/02/27 03:53:50;;;;;;;16.20;9.35;;;;;;;;;;4987461;28;25120;-67
2024/02/27 03:56:16;;;;;;;16.00;8.43;;;;;;;;;;4989548;28;25122;-68
2024/02/27 03:58:42;;;;;;;17.13;9.30;;;;;;;;;;5010126;28;25076;-68
2024/02/27 04:01:08;;;;;;;13.45;9.48;;;;;;;;;;5004393;28;25067;-68
2024/02/27 04:03:45;;;;;;;17.58;10.18;;;;;;;;;;4989648;28;25155;-67
2024/02/27 04:06:12;;;;;;;16.25;10.60;;;;;;;;;;5000470;28;25115;-69
2024/02/27 04:08:38;;;;;;;15.00;9.65;;;;;;;;;;5003252;28;25065;-68
2024/02/27 04:11:04;;;;;;;16.60;10.13;;;;;;;;;;5005962;28;25099;-69
2024/02/27 04:13:30;;;;;;;19.23;10.52;;;;;;;;;;5006640;28;25068;-68
2024/02/27 04:15:56;;;;;;;14.63;10.27;;;;;;;;;;5008199;28;25058;-70
2024/02/27 04:18:23;;;;;;;14.25;9.98;;;;;;;;;;4998062;28;25050;-68
2024/02/27 04:20:49;;;;;;;15.80;10.05;;;;;;;;;;4999662;28;25148;-69
2024/02/27 04:23:15;;;;;;;19.88;11.30;;;;;;;;;;5000377;28;25066;-70
2024/02/27 04:25:41;;;;;;;17.15;9.45;;;;;;;;;;5005036;28;25078;-69
2024/02/27 04:28:07;;;;;;;15.90;9.63;;;;;;;;;;4998977;28;25081;-68
2024/02/27 04:30:33;;;;;;;16.63;9.05;;;;;;;;;;5002842;28;25063;-68
2024/02/27 04:33:00;;;;;;;19.70;11.15;;;;;;;;;;4989556;28;25116;-68
2024/02/27 04:35:26;;;;;;;18.58;9.77;;;;;;;;;;4983431;28;25060;-68
2024/02/27 04:37:52;;;;;;;17.50;9.93;;;;;;;;;;4996238;28;24977;-69
2024/02/27 04:40:19;;;;;;;15.60;10.88;;;;;;;;;;4996100;28;25094;-70
2024/02/27 04:42:45;;;;;;;13.82;10.00;;;;;;;;;;4984556;28;25068;-68
2024/02/27 04:45:11;;;;;;;15.93;9.48;;;;;;;;;;4998855;28;25058;-68
2024/02/27 04:47:37;;;;;;;16.95;10.43;;;;;;;;;;5002242;28;25062;-69
2024/02/27 04:50:03;;;;;;;15.23;9.30;;;;;;;;;;5002774;28;25156;-68
2024/02/27 04:52:29;;;;;;;19.50;10.85;;;;;;;;;;4987565;28;25059;-69
2024/02/27 04:54:55;;;;;;;17.85;10.55;;;;;;;;;;4986814;28;25072;-70
2024/02/27 04:57:21;;;;;;;16.30;10.35;;;;;;;;;;4981780;28;25067;-69
2024/02/27 04:59:47;;;;;;;16.15;10.38;;;;;;;;;;5003875;28;25045;-69
2024/02/27 05:02:13;;;;;;;16.55;11.13;;;;;;;;;;4999390;28;25050;-68
2024/02/27 05:04:39;;;;;;;18.67;10.48;;;;;;;;;;5004375;28;25158;-68
2024/02/27 05:07:06;;;;;;;14.32;10.18;;;;;;;;;;5003146;28;25095;-70
2024/02/27 05:09:32;;;;;;;17.65;10.00;;;;;;;;;;5001011;28;25041;-71
2024/02/27 05:11:58;;;;;;;18.67;10.15;;;;;;;;;;4987219;28;25056;-70
2024/02/27 05:14:25;;;;;;;21.20;12.40;;;;;;;;;;4990504;28;25125;-69
2024/02/27 05:16:52;;;;;;;20.55;10.35;;;;;;;;;;4988073;28;25057;-69
2024/02/27 05:19:19;;;;;;;15.93;10.35;;;;;;;;;;4989720;28;25061;-66
2024/02/27 05:21:46;;;;;;;18.73;9.77;;;;;;;;;;5009317;28;25149;-68
2024/02/27 05:24:12;;;;;;;20.02;11.40;;;;;;;;;;4990669;28;25069;-66
2024/02/27 05:26:38;;;;;;;17.35;10.32;;;;;;;;;;5018232;28;25079;-69
2024/02/27 05:29:04;;;;;;;15.07;10.27;;;;;;;;;;4995666;28;25137;-68
2024/02/27 05:31:31;;;;;;;18.42;10.30;;;;;;;;;;4996660;28;25078;-70
2024/02/27 05:33:57;;;;;;;22.40;10.43;;;;;;;;;;4999932;28;25068;-70
2024/02/27 05:36:24;;;;;;;19.67;10.52;;;;;;;;;;4989969;28;25073;-71
2024/02/27 05:38:51;;;;;;;14.77;9.82;;;;;;;;;;4982946;28;25076;-68
2024/02/27 05:41:17;;;;;;;15.95;9.30;;;;;;;;;;5005194;28;25072;-70
2024/02/27 05:43:43;;;;;;;21.77;9.55;;;;;;;;;;5001588;28;25101;-69
2024/02/27 05:46:10;;;;;;;16.15;8.73;;;;;;;;;;5004122;28;25051;-69
2024/02/27 05:48:37;;;;;;;29.85;11.02;;;;;;;;;;5007091;28;25054;-70
2024/02/27 05:51:03;;;;;;;19.00;9.57;;;;;;;;;;5001422;28;25070;-69
2024/02/27 05:53:32;;;;;;;20.25;10.23;;;;;;;;;;5005111;28;25065;-71
2024/02/27 05:55:58;;;;;;;17.67;10.35;;;;;;;;;;5008319;28;25058;-69
2024/02/27 05:58:25;;;;;;;18.23;10.10;;;;;;;;;;5002226;28;25094;-69
2024/02/27 06:00:51;;;;;;;15.68;9.35;;;;;;;;;;5008673;28;25062;-68
2024/02/27 06:03:18;;;;;;;17.90;10.20;;;;;;;;;;4987902;28;25075;-68
2024/02/27 06:05:44;;;;;;;16.30;10.85;;;;;;;;;;5001450;28;25066;-68
2024/02/27 06:08:11;;;;;;;16.27;10.32;;;;;;;;;;4985638;28;25138;-67
2024/02/27 06:10:38;;;;;;;20.63;11.52;;;;;;;;;;5004135;28;25062;-68
2024/02/27 06:13:04;;;;;;;21.92;10.68;;;;;;;;;;5008388;28;25075;-70
2024/02/27 06:15:30;;;;;;;21.25;11.52;;;;;;;;;;4992244;28;25105;-69
2024/02/27 06:17:56;;;;;;;19.65;11.27;;;;;;;;;;5007757;28;25065;-67
2024/02/27 06:23:07;;;;;;;18.80;11.75;;;;;;;;;;5008482;28;25082;-68
2024/02/27 06:25:33;;;;;;;20.25;11.02;;;;;;;;;;5004427;28;25067;-68
2024/02/27 06:27:59;;;;;;;19.42;11.95;;;;;;;;;;5008460;28;25053;-69
2024/02/27 06:30:25;;;;;;;27.20;12.82;;;;;;;;;;5005240;28;25087;-70
2024/02/27 06:32:52;;;;;;;21.23;12.30;;;;;;;;;;4985474;28;25073;-68
2024/02/27 06:35:18;;;;;;;20.42;12.57;;;;;;;;;;4993755;28;25140;-69
2024/02/27 06:37:44;;;;;;;20.77;12.40;;;;;;;;;;4992604;28;25066;-70
2024/02/27 06:40:10;;;;;;;22.23;12.82;;;;;;;;;;4996674;28;25054;-69
2024/02/27 06:42:37;;;;;;;28.55;13.90;;;;;;;;;;5003167;28;25081;-70
2024/02/27 06:45:13;;;;;;;23.27;13.15;;;;;;;;;;5005421;28;25145;-71
2024/02/27 06:47:41;;;;;;;23.63;13.45;;;;;;;;;;5005518;28;25078;-70
2024/02/27 06:50:09;;;;;;;31.23;15.27;;;;;;;;;;5003621;28;25062;-70
2024/02/27 06:52:36;;;;;;;27.73;15.38;;;;;;;;;;5002026;28;25102;-69
2024/02/27 06:55:03;;;;;;;28.05;15.25;;;;;;;;;;5002637;28;25077;-68
2024/02/27 06:57:29;;;;;;;28.15;15.88;;;;;;;;;;4999548;28;25059;-69
2024/02/27 06:59:55;;;;;;;28.92;15.65;;;;;;;;;;5003023;28;25074;-70
2024/02/27 07:02:21;;;;;;;27.98;15.48;;;;;;;;;;4977395;28;25056;-69
2024/02/27 07:04:47;;;;;;;22.08;15.48;;;;;;;;;;4989595;28;25061;-68
2024/02/27 07:07:13;;;;;;;29.40;15.32;;;;;;;;;;4987632;28;25058;-68
2024/02/27 07:09:39;;;;;;;26.90;16.40;;;;;;;;;;5002917;28;25142;-70
2024/02/27 07:12:06;;;;;;;30.48;15.80;;;;;;;;;;5007744;28;25066;-70
2024/02/27 07:14:33;;;;;;;24.52;16.27;;;;;;;;;;4992650;28;25075;-68
2024/02/27 07:17:00;;;;;;;27.80;14.52;;;;;;;;;;5008378;28;25113;-68
2024/02/27 07:19:26;;;;;;;31.85;15.68;;;;;;;;;;5003772;28;25076;-69
2024/02/27 07:21:52;;;;;;;28.85;15.82;;;;;;;;;;4992582;28;25069;-69
2024/02/27 07:24:19;;;;;;;27.35;16.00;;;;;;;;;;5003093;28;25082;-71
2024/02/27 07:26:45;;;;;;;32.03;15.52;;;;;;;;;;4991362;28;25056;-68
2024/02/27 07:29:14;;;;;;;29.48;14.65;;;;;;;;;;5018047;28;25073;-69
2024/02/27 07:31:41;;;;;;;30.52;15.60;;;;;;;;;;5020050;28;25081;-70
2024/02/27 07:34:11;;;;;;;22.42;13.88;;;;;;;;;;5000838;28;25055;-69
2024/02/27 07:36:37;;;;;;;28.80;14.90;;;;;;;;;;5011421;28;25077;-70
2024/02/27 07:39:03;;;;;;;26.95;14.45;;;;;;;;;;5004905;28;25071;-68
2024/02/27 07:41:29;;;;;;;34.72;15.52;;;;;;;;;;5006202;28;25163;-69
2024/02/27 07:43:55;;;;;;;26.95;15.77;;;;;;;;;;5005113;28;25105;-69
2024/02/27 07:46:21;;;;;;;27.95;14.85;;;;;;;;;;5004552;28;25057;-71
2024/02/27 07:48:47;;;;;;;31.42;16.80;;;;;;;;;;5003452;28;25095;-69
2024/02/27 07:51:26;;;;;;;29.27;16.77;;;;;;;;;;4985667;28;25066;-68
2024/02/27 07:53:52;;;;;;;28.15;16.45;;;;;;;;;;4975743;28;25070;-68
2024/02/27 07:56:18;;;;;;;27.35;15.75;;;;;;;;;;4999355;28;25051;-68
2024/02/27 07:58:45;;;;;;;29.48;15.35;;;;;;;;;;5003075;28;25066;-70
2024/02/27 08:01:11;;;;;;;24.80;15.18;;;;;;;;;;4984350;28;25042;-69
2024/02/27 08:03:37;;;;;;;29.75;15.55;;;;;;;;;;4996631;28;25074;-69
2024/02/27 08:06:06;;;;;;;26.60;16.58;;;;;;;;;;5000699;28;25067;-69
2024/02/27 08:08:32;;;;;;;28.95;15.25;;;;;;;;;;5002663;28;25115;-68
2024/02/27 08:10:58;;;;;;;28.67;15.55;;;;;;;;;;5001876;28;25148;-67
2024/02/27 08:13:24;;;;;;;26.50;15.85;;;;;;;;;;4979610;28;25045;-68
2024/02/27 08:15:50;;;;;;;26.80;16.52;;;;;;;;;;5003440;28;25092;-69
2024/02/27 08:18:16;;;;;;;26.85;15.05;;;;;;;;;;5001948;28;25053;-69
2024/02/27 08:20:43;;;;;;;25.85;15.45;;;;;;;;;;5004701;28;25168;-68
2024/02/27 08:23:09;;;;;;;28.08;16.38;;;;;;;;;;5001721;28;25058;-69
2024/02/27 08:25:37;;;;;;;29.25;16.60;;;;;;;;;;4988641;28;25139;-72
2024/02/27 08:28:03;;;;;;;28.45;16.27;;;;;;;;;;5003866;28;25206;-68
2024/02/27 08:30:29;;;;;;;24.23;16.02;;;;;;;;;;4999937;28;25078;-68
2024/02/27 08:32:55;;;;;;;28.52;16.27;;;;;;;;;;4991258;28;25092;-68
2024/02/27 08:35:21;;;;;;;24.05;15.15;;;;;;;;;;5001802;28;25064;-68
2024/02/27 08:37:48;;;;;;;28.92;16.88;;;;;;;;;;5004845;28;25141;-69
2024/02/27 08:40:14;;;;;;;24.73;15.15;;;;;;;;;;4989331;28;25078;-70
2024/02/27 08:42:40;;;;;;;28.73;16.00;;;;;;;;;;5000605;28;25102;-67
2024/02/27 08:45:07;;;;;;;29.77;16.02;;;;;;;;;;5000164;28;25074;-70
2024/02/27 08:47:33;;;;;;;27.65;16.42;;;;;;;;;;5002729;28;25084;-67
2024/02/27 08:49:59;;;;;;;29.48;14.52;;;;;;;;;;4990547;28;25171;-68
2024/02/27 08:52:25;;;;;;;26.80;15.38;;;;;;;;;;5002303;28;25069;-68
2024/02/27 08:54:51;;;;;;;17.33;11.98;;;;;;;;;;5009101;28;25066;-67
2024/02/27 08:57:17;;;;;;;26.40;16.88;;;;;;;;;;5008672;28;25070;-70
2024/02/27 08:59:46;;;;;;;24.38;14.15;;;;;;;;;;4993844;28;25165;-68
2024/02/27 09:02:12;;;;;;;26.30;15.63;;;;;;;;;;5003136;28;25059;-68
2024/02/27 09:04:38;;;;;;;26.20;15.18;;;;;;;;;;5004066;28;25099;-68
2024/02/27 09:07:04;;;;;;;23.42;14.90;;;;;;;;;;5007317;28;25139;-68
2024/02/27 09:09:30;;;;;;;24.05;14.55;;;;;;;;;;4979186;28;25075;-68
2024/02/27 09:11:57;;;;;;;23.17;14.20;;;;;;;;;;4987294;28;25062;-68
2024/02/27 09:14:23;;;;;;;24.65;15.80;;;;;;;;;;4999975;28;25081;-68
2024/02/27 09:16:49;;;;;;;27.63;14.82;;;;;;;;;;4985933;28;25095;-68
2024/02/27 09:19:22;;;;;;;23.48;13.77;;;;;;;;;;5003858;28;25073;-69
2024/02/27 09:21:48;;;;;;;24.55;14.07;;;;;;;;;;4986205;28;25146;-69
2024/02/27 09:24:14;;;;;;;27.45;14.65;;;;;;;;;;4988453;28;25054;-68
2024/02/27 09:26:40;;;;;;;25.35;13.77;;;;;;;;;;4992432;28;25088;-68
2024/02/27 09:29:06;;;;;;;24.23;13.93;;;;;;;;;;4986326;28;25052;-67
2024/02/27 09:31:32;;;;;;;24.67;13.48;;;;;;;;;;5008805;28;25100;-70
2024/02/27 09:33:59;;;;;;;22.88;12.98;;;;;;;;;;5007554;28;25101;-70
2024/02/27 09:36:25;;;;;;;21.23;12.65;;;;;;;;;;4989806;28;25068;-69
2024/02/27 09:38:51;;;;;;;22.15;12.38;;;;;;;;;;4992120;28;25087;-67
2024/02/27 09:41:43;;;;;;;16.38;11.95;;;;;;;;;;5021432;28;25064;-68
2024/02/27 09:44:10;;;;;;;17.20;11.55;;;;;;;;;;4993628;28;25075;-69
2024/02/27 09:46:37;;;;;;;22.08;12.50;;;;;;;;;;5013681;28;25051;-69
2024/02/27 09:49:03;;;;;;;23.90;12.82;;;;;;;;;;4997938;28;25068;-69
2024/02/27 09:51:30;;;;;;;19.42;11.70;;;;;;;;;;4985589;28;25089;-71
2024/02/27 09:53:57;;;;;;;15.65;11.75;;;;;;;;;;5001234;28;25060;-68
2024/02/27 09:56:24;;;;;;;18.92;12.20;;;;;;;;;;5001073;28;25089;-69
2024/02/27 09:58:51;;;;;;;18.98;11.15;;;;;;;;;;5002383;28;25071;-68
2024/02/27 10:01:20;;;;;;;24.77;11.18;;;;;;;;;;4986684;28;25154;-68
2024/02/27 10:03:47;;;;;;;19.50;11.27;;;;;;;;;;4983224;28;25058;-68
2024/02/27 10:06:16;;;;;;;18.48;11.60;;;;;;;;;;5001026;28;25077;-68
2024/02/27 10:08:45;;;;;;;15.95;11.32;;;;;;;;;;5005262;28;25083;-68
2024/02/27 10:11:12;;;;;;;14.75;10.45;;;;;;;;;;5001727;28;25049;-67
2024/02/27 10:13:38;;;;;;;21.20;11.93;;;;;;;;;;5000528;28;25051;-68
2024/02/27 10:16:05;;;;;;;15.68;9.73;;;;;;;;;;4987768;28;25082;-68
2024/02/27 10:18:31;;;;;;;17.48;11.40;;;;;;;;;;4981307;28;25074;-66
2024/02/27 10:20:58;;;;;;;15.50;10.50;;;;;;;;;;5000123;28;25158;-67
2024/02/27 10:23:24;;;;;;;14.98;9.93;;;;;;;;;;4997943;28;25154;-68
2024/02/27 10:25:51;;;;;;;16.42;10.65;;;;;;;;;;5001384;28;25074;-66
2024/02/27 10:28:20;;;;;;;14.70;9.82;;;;;;;;;;4991269;28;25062;-69
2024/02/27 10:30:46;;;;;;;13.23;9.63;;;;;;;;;;5003882;28;25152;-67
2024/02/27 10:33:15;;;;;;;13.23;10.23;;;;;;;;;;4988357;28;25145;-67
2024/02/27 10:35:41;;;;;;;13.80;9.93;;;;;;;;;;5004527;28;25129;-70
2024/02/27 10:38:21;;;;;;;16.00;10.98;;;;;;;;;;5006380;28;25084;-69
2024/02/27 10:40:47;;;;;;;16.65;11.13;;;;;;;;;;4986434;28;25053;-67
2024/02/27 10:43:14;;;;;;;14.45;10.25;;;;;;;;;;5002380;28;25065;-68
2024/02/27 10:45:43;;;;;;;11.75;9.10;;;;;;;;;;4997085;28;25053;-68
2024/02/27 10:48:10;;;;;;;14.35;10.02;;;;;;;;;;4995448;28;25057;-67
2024/02/27 10:50:36;;;;;;;17.15;9.20;;;;;;;;;;5001039;28;25074;-68
2024/02/27 10:53:05;;;;;;;12.30;9.63;;;;;;;;;;4987147;28;25066;-68
2024/02/27 10:55:31;;;;;;;12.75;9.07;;;;;;;;;;4984136;28;25063;-68
2024/02/27 10:58:00;;;;;;;14.40;10.43;;;;;;;;;;4998827;28;25131;-69
2024/02/27 11:00:29;;;;;;;11.93;10.13;;;;;;;;;;4985948;28;25088;-69
2024/02/27 11:02:59;;;;;;;16.02;9.38;;;;;;;;;;5002778;28;25055;-70
2024/02/27 11:05:51;;;;;;;14.05;9.38;;;;;;;;;;5002990;28;25124;-68
2024/02/27 11:08:17;;;;;;;11.50;9.60;;;;;;;;;;4999163;28;25092;-70
2024/02/27 11:10:43;;;;;;;13.05;9.63;;;;;;;;;;5005439;28;25069;-67
2024/02/27 11:13:13;;;;;;;13.00;10.00;;;;;;;;;;4982490;28;25049;-70
2024/02/27 11:15:40;;;;;;;11.68;9.07;;;;;;;;;;4986630;28;25073;-69
2024/02/27 11:18:08;;;;;;;11.68;9.20;;;;;;;;;;5000669;28;25159;-68
2024/02/27 11:20:37;;;;;;;12.38;9.15;;;;;;;;;;4991859;28;25063;-69
2024/02/27 11:23:04;;;;;;;15.90;9.38;;;;;;;;;;4988867;28;25144;-69
2024/02/27 11:25:33;;;;;;;13.50;9.35;;;;;;;;;;5004418;28;25075;-66
2024/02/27 11:28:00;;;;;;;10.98;8.88;;;;;;;;;;5002402;28;25100;-68
2024/02/27 11:30:34;;;;;;;12.20;8.60;;;;;;;;;;4975878;28;25105;-67
2024/02/27 11:33:00;;;;;;;12.68;9.52;;;;;;;;;;4990609;28;25125;-70
2024/02/27 11:35:27;;;;;;;10.35;8.57;;;;;;;;;;5001628;28;25073;-66
2024/02/27 11:37:53;;;;;;;13.35;9.80;;;;;;;;;;4984881;28;25071;-67
2024/02/27 11:40:38;;;;;;;12.93;8.18;;;;;;;;;;5005354;28;25150;-67
2024/02/27 11:43:07;;;;;;;11.27;8.05;;;;;;;;;;5006286;28;25061;-66
2024/02/27 11:45:33;;;;;;;11.43;7.63;;;;;;;;;;4999289;28;25082;-67
2024/02/27 11:47:59;;;;;;;12.48;8.93;;;;;;;;;;5004210;28;25102;-68
2024/02/27 11:50:34;;;;;;;12.93;9.05;;;;;;;;;;4993820;28;25090;-67
2024/02/27 11:53:20;;;;;;;9.93;8.90;;;;;;;;;;4991920;28;25061;-69
2024/02/27 11:55:47;;;;;;;12.98;7.80;;;;;;;;;;5011770;28;25051;-68
2024/02/27 11:58:14;;;;;;;9.98;8.38;;;;;;;;;;5012569;28;25046;-67
2024/02/27 12:00:40;;;;;;;9.98;8.85;;;;;;;;;;5010127;28;25089;-68
2024/02/27 12:03:06;;;;;;;9.73;8.32;;;;;;;;;;5022089;28;25058;-69
2024/02/27 12:05:32;;;;;;;12.00;9.25;;;;;;;;;;5020300;28;25109;-68
2024/02/27 12:08:02;;;;;;;13.90;8.55;;;;;;;;;;5004411;28;25145;-65
2024/02/27 12:10:28;;;;;;;9.70;8.43;;;;;;;;;;5005250;28;25060;-66
2024/02/27 12:12:55;;;;;;;10.02;8.70;;;;;;;;;;5003363;28;25094;-68
2024/02/27 12:15:21;;;;;;;12.63;8.25;;;;;;;;;;5007968;28;25069;-66
2024/02/27 12:17:47;;;;;;;11.45;9.57;;;;;;;;;;4990382;28;25064;-67
2024/02/27 12:20:14;;;;;;;12.60;9.75;;;;;;;;;;4989668;28;25118;-68
2024/02/27 12:22:45;;;;;;;10.02;8.73;;;;;;;;;;5001619;28;25127;-68
2024/02/27 12:25:11;;;;;;;11.80;8.50;;;;;;;;;;5002097;28;25055;-69
2024/02/27 12:27:37;;;;;;;12.05;8.77;;;;;;;;;;5000995;28;25084;-67
2024/02/27 12:30:11;;;;;;;8.02;7.00;;;;;;;;;;4985303;28;25091;-68
2024/02/27 12:32:40;;;;;;;9.30;7.78;;;;;;;;;;4987515;28;25057;-68
2024/02/27 12:35:07;;;;;;;8.93;7.97;;;;;;;;;;5000349;28;25053;-69
2024/02/27 12:37:38;;;;;;;11.55;9.80;;;;;;;;;;4999821;28;25095;-67
2024/02/27 12:40:05;;;;;;;13.05;9.60;;;;;;;;;;4988396;28;25132;-68
2024/02/27 12:42:34;;;;;;;9.93;8.50;;;;;;;;;;5001027;28;25122;-67
2024/02/27 12:45:00;;;;;;;10.02;8.02;;;;;;;;;;4993344;28;25071;-67
2024/02/27 12:47:26;;;;;;;10.70;9.50;;;;;;;;;;4999229;28;25086;-68
2024/02/27 12:49:52;;;;;;;10.27;8.93;;;;;;;;;;5004415;28;25067;-66
2024/02/27 12:52:18;;;;;;;11.88;9.27;;;;;;;;;;5001247;28;25059;-68
2024/02/27 12:54:45;;;;;;;9.85;8.85;;;;;;;;;;4981193;28;25070;-67
2024/02/27 12:57:11;;;;;;;12.10;8.23;;;;;;;;;;4998149;28;25096;-68
2024/02/27 12:59:37;;;;;;;11.60;9.30;;;;;;;;;;5002620;28;25070;-68
2024/02/27 13:02:05;;;;;;;12.25;7.82;;;;;;;;;;4985110;28;25120;-67
2024/02/27 13:04:31;;;;;;;11.57;7.82;;;;;;;;;;4987433;28;25072;-67
2024/02/27 13:06:58;;;;;;;11.00;7.50;;;;;;;;;;4998730;28;25095;-67
2024/02/27 13:09:26;;;;;;;8.27;7.35;;;;;;;;;;5002608;28;25136;-67
2024/02/27 13:11:52;;;;;;;10.57;7.32;;;;;;;;;;4997576;28;25108;-65
2024/02/27 13:14:19;;;;;;;10.98;8.05;;;;;;;;;;4998327;28;25153;-67
2024/02/27 13:16:46;;;;;;;9.57;8.02;;;;;;;;;;5004380;28;25153;-68
2024/02/27 13:19:12;;;;;;;9.10;7.68;;;;;;;;;;5002824;28;25054;-69
2024/02/27 13:21:40;;;;;;;8.27;7.18;;;;;;;;;;5002507;28;25059;-67
2024/02/27 13:24:06;;;;;;;10.50;7.30;;;;;;;;;;5003852;28;25064;-68
2024/02/27 13:26:32;;;;;;;9.05;7.05;;;;;;;;;;5004306;28;25148;-68
2024/02/27 13:28:58;;;;;;;9.73;7.35;;;;;;;;;;5001481;28;25128;-68
2024/02/27 13:31:25;;;;;;;8.13;7.30;;;;;;;;;;5003105;28;25070;-69
2024/02/27 13:33:51;;;;;;;8.80;7.80;;;;;;;;;;4983453;28;25075;-68
2024/02/27 13:36:18;;;;;;;10.93;7.78;;;;;;;;;;5002140;28;25142;-68
2024/02/27 13:38:44;;;;;;;11.45;8.02;;;;;;;;;;4986386;28;25059;-68
2024/02/27 13:41:10;;;;;;;9.35;7.72;;;;;;;;;;4999756;28;25140;-68
2024/02/27 13:43:36;;;;;;;11.13;7.90;;;;;;;;;;4983288;28;25050;-67
2024/02/27 13:46:02;;;;;;;11.27;7.57;;;;;;;;;;4990664;28;25048;-66
2024/02/27 13:48:28;;;;;;;23.88;9.80;;;;;;;;;;4998929;28;25056;-68
2024/02/27 13:50:55;;;;;;;11.32;8.57;;;;;;;;;;5005021;28;25110;-67
2024/02/27 13:53:21;;;;;;;10.40;8.02;;;;;;;;;;4983218;28;25134;-67
2024/02/27 13:55:47;;;;;;;9.27;8.23;;;;;;;;;;5005179;28;25148;-69
2024/02/27 13:58:13;;;;;;;10.45;9.23;;;;;;;;;;4985898;28;25181;-68
2024/02/27 14:00:39;;;;;;;10.48;8.50;;;;;;;;;;5007356;28;25137;-67
2024/02/27 14:03:08;;;;;;;9.10;7.63;;;;;;;;;;5011988;28;25076;-68
2024/02/27 14:05:35;;;;;;;7.90;7.03;;;;;;;;;;5010491;28;25076;-66
2024/02/27 14:08:00;;;;;;;8.98;6.68;;;;;;;;;;5010014;28;25089;-68
2024/02/27 14:10:27;;;;;;;10.85;6.90;;;;;;;;;;4993915;28;25079;-69
2024/02/27 14:12:53;;;;;;;7.75;6.93;;;;;;;;;;4994103;28;25050;-68
2024/02/27 14:15:19;;;;;;;9.68;7.45;;;;;;;;;;5018783;28;25080;-67
2024/02/27 14:17:45;;;;;;;11.15;8.63;;;;;;;;;;5006511;28;25055;-67
2024/02/27 14:20:11;;;;;;;12.45;7.57;;;;;;;;;;5001253;28;25080;-69
2024/02/27 14:22:37;;;;;;;8.45;6.88;;;;;;;;;;5019495;28;25073;-69
2024/02/27 14:25:04;;;;;;;13.40;8.00;;;;;;;;;;5010175;28;25069;-68
2024/02/27 14:27:30;;;;;;;10.23;7.80;;;;;;;;;;5008771;28;25088;-67